Fargo, ND (58102)

11:20 PM CDT on June 02, 2015 (GMT -0500)
Hector International | | Change Station
CLOSE
Current Station
Airport
Location: Fargo,
Elevation: 899 ft
Nearby Weather Stations
Active Advisory: Flood Warning Active Notice: Local Storm Report

Elev 899 ft 46.91 °N, 96.81 °W | Updated 27 minutes ago

Scattered Clouds
Scattered Clouds
76 °F
Feels Like 76 °F
N
22
Wind Variable Wind from SSE
Gusts 29 mph

Today
High -- | Low -- °F
--% Chance of Precip.
Yesterday
High -- | Low -- °F
Precip. -- in
5:35 AM 9:15 PM
Full, 100% visible
Pressure 29.65 in
Visibility 10.0 miles
Clouds Few 7000 ft
Scattered Clouds 9000 ft
Dew Point 62 °F
Humidity 62%
Rainfall 0.00 in
Snow Depth Not available.
UV 0 out of 12
Pollen 8.00 out of 12
Air Quality Not available.
Flu Activity Sporadic
METAR KFAR 030353Z 16019G25KT 10SM FEW070 SCT090 24/17 A2965 RMK AO2 SLP038 T02440167 $

More Conditions Fewer Conditions

Pressure 29.65 in
Visibility 10.0 miles
Clouds Few 7000 ft
Scattered Clouds 9000 ft
Dew Point 62 °F
Humidity 62%
Rainfall 0.00 in
Snow Depth Not available.
UV 0 out of 12
Pollen 8.00 out of 12
Air Quality Not available.
Flu Activity Sporadic
METAR KFAR 030353Z 16019G25KT 10SM FEW070 SCT090 24/17 A2965 RMK AO2 SLP038 T02440167 $

More Conditions Fewer Conditions

10-Day Weather Forecast

×

Almanac

Astronomy

Jun. 02, 2015 Rise Set
Actual Time
Civil Twilight
Nautical Twilight
Astronomical Twilight
Moon
Length of Visible Light
Length of Day
Tomorrow will be .
, % of the Moon is Illuminated

Today's Extremes

State Highs State Lows

Community

WunderPhotos

Upload Photos

1,826,164 photos uploaded!

WunderBlogs® & News

Nearby

Air Quality

  Air Quality AQ Index Pollutant
Not available.

Snow Depth

Station Depth Elevation

Earthquake Activity

City Distance Mag. Time & Date
Minimum magnitude displayed is 2.5.

Coastal Water Temperatures

Place Temperature

Stations

Nearby Weather Stations

Station Location Temp. Windchill Dew Point Humidity Wind Precip. Elev Updated Type
                   
Flood Warning
Statement as of 9:12 PM CDT on June 02, 2015

The Flood Warning continues for...
* ... Fargo... on the Red River.
* Until late Thursday night... or until the warning is cancelled.
* At 8:15 PM Tuesday the stage was 18.8 feet.
* Minor flooding is occurring and during the next 7 days... minor
flooding is forecast.
* Minor flood stage is 18.0 feet.
* Forecast... the river will continue to fall to below flood stage by
Wednesday evening.
* Impact statement(s) - at 19.0 feet, Fargo... low-level dam south of
main Avenue is underwater.


Daily 7pm CDT/6pm CST forecast stage in feet:

date Wed Thu Fri Sat sun Mon Tue
(month/day) 06/03 06/04 06/05 06/06 06/07 06/08 06/09
Fargo 18.0 17.4 16.9 16.7 16.5 16.4 16.3
lat... Lon 4715 9673 4724 9683 4724 9694 4676 9689 4677 9671